createdAt,value
2018-10-06T00:01:48.640Z,63.83
2018-10-06T00:04:18.300Z,63.77
2018-10-06T00:06:47.916Z,64.40
2018-10-06T00:09:17.521Z,63.98
2018-10-06T00:11:47.223Z,63.60
2018-10-06T00:14:16.833Z,64.54
2018-10-06T00:16:46.440Z,64.19
2018-10-06T00:19:16.104Z,64.72
2018-10-06T00:21:45.722Z,64.82
2018-10-06T00:24:15.353Z,65.00
2018-10-06T00:26:45.060Z,64.82
2018-10-06T00:29:14.701Z,65.08
2018-10-06T00:31:44.326Z,64.89
2018-10-06T00:34:13.972Z,64.62
2018-10-06T00:36:43.604Z,64.96
2018-10-06T00:39:13.251Z,65.27
2018-10-06T00:41:42.867Z,64.36
2018-10-06T00:44:12.472Z,64.94
2018-10-06T00:46:42.136Z,65.01
2018-10-06T00:49:11.760Z,64.90
2018-10-06T00:51:41.381Z,64.53
2018-10-06T00:54:11.068Z,64.68
2018-10-06T00:56:40.760Z,64.90
2018-10-06T00:59:10.363Z,64.59
2018-10-06T01:01:40.036Z,65.08
2018-10-06T01:04:09.908Z,64.79
2018-10-06T01:06:39.532Z,64.88
2018-10-06T01:09:10.500Z,64.99
2018-10-06T01:11:40.701Z,64.83
2018-10-06T01:14:10.359Z,65.13
2018-10-06T01:16:39.990Z,65.17
2018-10-06T01:19:09.696Z,64.58
2018-10-06T01:21:39.380Z,64.65
2018-10-06T01:24:09.021Z,64.82
2018-10-06T01:26:38.648Z,65.20
2018-10-06T01:29:08.360Z,64.82
2018-10-06T01:31:37.987Z,65.16
2018-10-06T01:34:07.639Z,65.72
2018-10-06T01:36:37.325Z,65.94
2018-10-06T01:39:07.687Z,65.18
2018-10-06T01:41:37.351Z,66.49
2018-10-06T01:44:07.073Z,66.20
2018-10-06T01:46:36.735Z,66.26
2018-10-06T01:49:06.397Z,65.83
2018-10-06T01:51:36.013Z,66.43
2018-10-06T01:54:05.639Z,66.15
2018-10-06T01:56:35.348Z,66.62
2018-10-06T01:59:04.976Z,66.11
2018-10-06T02:01:34.615Z,66.37
2018-10-06T02:04:04.332Z,66.49
2018-10-06T02:06:33.976Z,67.59
2018-10-06T02:09:03.764Z,67.31
2018-10-06T02:11:33.456Z,67.06
2018-10-06T02:14:03.096Z,67.28
2018-10-06T02:16:32.714Z,67.84
2018-10-06T02:19:02.397Z,66.95
2018-10-06T02:21:32.028Z,67.71
2018-10-06T02:24:01.640Z,66.81
2018-10-06T02:26:31.341Z,67.12
2018-10-06T02:29:00.962Z,67.79
2018-10-06T02:31:30.589Z,67.88
2018-10-06T02:34:00.428Z,67.25
2018-10-06T02:36:30.336Z,66.67
2018-10-06T02:38:59.952Z,67.04
2018-10-06T02:41:29.617Z,66.15
2018-10-06T02:43:59.236Z,66.78
2018-10-06T02:46:28.842Z,67.45
2018-10-06T02:48:58.507Z,68.13
2018-10-06T02:51:28.123Z,67.58
2018-10-06T02:53:57.732Z,67.37
2018-10-06T02:56:27.641Z,66.87
2018-10-06T02:58:57.266Z,67.03
2018-10-06T03:01:26.880Z,67.21
2018-10-06T03:03:56.555Z,66.67
2018-10-06T03:06:26.237Z,67.72
2018-10-06T03:08:55.864Z,67.98
2018-10-06T03:11:25.541Z,67.57
2018-10-06T03:13:55.329Z,67.84
2018-10-06T03:16:25.484Z,67.25
2018-10-06T03:18:55.251Z,67.02
2018-10-06T03:21:24.945Z,67.41
2018-10-06T03:23:54.579Z,67.95
2018-10-06T03:26:24.273Z,67.33
2018-10-06T03:28:53.891Z,67.62
2018-10-06T03:31:23.560Z,67.21
2018-10-06T03:33:53.256Z,67.16
2018-10-06T03:36:22.875Z,67.44
2018-10-06T03:38:52.516Z,67.86
2018-10-06T03:41:22.127Z,67.87
2018-10-06T03:43:52.129Z,67.73
2018-10-06T03:46:21.772Z,67.91
2018-10-06T03:48:51.384Z,67.41
2018-10-06T03:51:21.049Z,68.18
2018-10-06T03:53:50.833Z,68.45
2018-10-06T03:56:20.416Z,68.24
2018-10-06T03:58:50.388Z,68.52
2018-10-06T04:01:20.001Z,68.03
2018-10-06T04:03:49.628Z,68.30
2018-10-06T04:06:19.319Z,68.96
2018-10-06T04:08:48.936Z,68.76
2018-10-06T04:11:18.571Z,68.77
2018-10-06T04:13:48.242Z,68.14
2018-10-06T04:16:17.860Z,68.67
2018-10-06T04:18:47.519Z,69.09
2018-10-06T04:21:17.127Z,69.16
2018-10-06T04:23:47.198Z,69.03
2018-10-06T04:26:16.871Z,68.60
2018-10-06T04:28:46.484Z,68.58
2018-10-06T04:31:16.153Z,69.34
2018-10-06T04:33:45.760Z,69.75
2018-10-06T04:36:15.390Z,69.77
2018-10-06T04:38:45.081Z,69.65
2018-10-06T04:41:14.704Z,69.16
2018-10-06T04:43:44.328Z,69.57
2018-10-06T04:46:14.022Z,69.37
2018-10-06T04:48:43.637Z,69.90
2018-10-06T04:51:13.337Z,69.46
2018-10-06T04:53:43.033Z,69.74
2018-10-06T04:56:12.705Z,70.60
2018-10-06T04:58:42.324Z,70.54
2018-10-06T05:01:12.006Z,70.74
2018-10-06T05:03:41.628Z,71.22
2018-10-06T05:06:12.236Z,70.72
2018-10-06T05:08:41.862Z,71.22
2018-10-06T05:11:11.482Z,71.45
2018-10-06T05:13:41.192Z,71.37
2018-10-06T05:16:10.828Z,71.19
2018-10-06T05:18:40.452Z,71.32
2018-10-06T05:21:10.125Z,71.11
2018-10-06T05:23:39.837Z,71.90
2018-10-06T05:26:09.448Z,71.50
2018-10-06T05:28:39.827Z,71.64
2018-10-06T05:31:09.440Z,71.35
2018-10-06T05:33:39.128Z,71.56
2018-10-06T05:36:08.757Z,72.59
2018-10-06T05:38:38.381Z,72.58
2018-10-06T05:41:08.081Z,72.01
2018-10-06T05:43:37.717Z,72.61
2018-10-06T05:46:07.644Z,71.65
2018-10-06T05:48:37.324Z,71.85
2018-10-06T05:51:07.448Z,71.65
2018-10-06T05:53:37.149Z,72.17
2018-10-06T05:56:06.808Z,71.47
2018-10-06T05:58:36.427Z,71.55
2018-10-06T06:01:06.084Z,72.59
2018-10-06T06:03:35.756Z,71.86
2018-10-06T06:06:05.436Z,71.81
2018-10-06T06:08:35.103Z,72.13
2018-10-06T06:11:04.717Z,72.35
2018-10-06T06:13:34.331Z,72.38
2018-10-06T06:16:04.093Z,72.43
2018-10-06T06:18:33.758Z,72.43
2018-10-06T06:21:03.374Z,72.12
2018-10-06T06:23:33.051Z,72.48
2018-10-06T06:26:02.688Z,71.97
2018-10-06T06:28:32.316Z,72.29
2018-10-06T06:31:01.993Z,72.48
2018-10-06T06:33:31.615Z,72.40
2018-10-06T06:36:01.281Z,72.41
2018-10-06T06:38:30.986Z,73.27
2018-10-06T06:41:00.569Z,72.67
2018-10-06T06:43:30.290Z,72.90
2018-10-06T06:45:59.916Z,72.14
2018-10-06T06:48:29.592Z,72.30
2018-10-06T06:50:59.252Z,72.61
2018-10-06T06:53:28.883Z,72.91
2018-10-06T06:55:58.596Z,72.69
2018-10-06T06:58:28.232Z,72.36
2018-10-06T07:00:57.866Z,71.94
2018-10-06T07:03:27.508Z,71.85
2018-10-06T07:05:57.152Z,71.62
2018-10-06T07:08:26.844Z,71.80
2018-10-06T07:10:56.476Z,71.74
2018-10-06T07:13:26.396Z,72.29
2018-10-06T07:15:56.008Z,71.27
2018-10-06T07:18:25.684Z,71.21
2018-10-06T07:20:55.372Z,70.83
2018-10-06T07:23:24.988Z,70.48
2018-10-06T07:25:54.644Z,71.58
2018-10-06T07:28:24.348Z,70.84
2018-10-06T07:30:54.239Z,71.57
2018-10-06T07:33:23.970Z,71.01
2018-10-06T07:35:53.684Z,70.84
2018-10-06T07:38:23.304Z,70.69
2018-10-06T07:40:53.027Z,69.95
2018-10-06T07:43:22.712Z,70.68
2018-10-06T07:45:52.753Z,70.64
2018-10-06T07:48:22.440Z,70.13
2018-10-06T07:50:52.088Z,70.26
2018-10-06T07:53:21.786Z,69.33
2018-10-06T07:55:51.518Z,69.84
2018-10-06T07:58:21.128Z,69.85
2018-10-06T08:00:51.108Z,68.70
2018-10-06T08:03:20.728Z,67.67
2018-10-06T08:05:50.568Z,67.71
2018-10-06T08:08:20.185Z,67.58
2018-10-06T08:10:49.812Z,68.22
2018-10-06T08:13:19.513Z,67.83
2018-10-06T08:15:49.184Z,66.57
2018-10-06T08:18:18.820Z,67.09
2018-10-06T08:20:48.500Z,66.57
2018-10-06T08:23:18.140Z,66.37
2018-10-06T08:25:47.891Z,66.67
2018-10-06T08:28:17.560Z,66.29
2018-10-06T08:30:47.320Z,66.57
2018-10-06T08:33:16.955Z,64.82
2018-10-06T08:35:46.611Z,65.08
2018-10-06T08:38:16.320Z,64.57
2018-10-06T08:40:45.967Z,64.13
2018-10-06T08:43:15.602Z,63.97
2018-10-06T08:45:45.256Z,64.12
2018-10-06T08:48:14.887Z,62.30
2018-10-06T08:50:45.536Z,61.53
2018-10-06T08:53:15.210Z,61.87
2018-10-06T08:55:44.993Z,62.21
2018-10-06T08:58:14.649Z,61.40
2018-10-06T09:00:44.360Z,61.09
2018-10-06T09:03:14.016Z,61.08
2018-10-06T09:05:43.656Z,61.24
2018-10-06T09:08:13.288Z,60.61
2018-10-06T09:10:42.990Z,61.15
2018-10-06T09:13:12.612Z,59.90
2018-10-06T09:15:42.292Z,61.12
2018-10-06T09:18:11.944Z,60.41
2018-10-06T09:20:41.598Z,61.06
2018-10-06T09:23:11.496Z,60.97
2018-10-06T09:25:41.168Z,59.56
2018-10-06T09:28:10.891Z,60.08
2018-10-06T09:30:40.525Z,60.79
2018-10-06T09:33:10.173Z,59.79
2018-10-06T09:35:39.828Z,58.94
2018-10-06T09:38:09.469Z,60.32
2018-10-06T09:40:39.151Z,59.18
2018-10-06T09:43:08.789Z,57.47
2018-10-06T09:45:38.444Z,57.75
2018-10-06T09:48:08.129Z,57.48
2018-10-06T09:50:37.736Z,57.54
2018-10-06T09:53:07.356Z,57.34
2018-10-06T09:55:37.012Z,56.83
2018-10-06T09:58:06.671Z,56.90
2018-10-06T10:00:41.484Z,56.23
2018-10-06T10:03:16.309Z,55.71
2018-10-06T10:05:49.802Z,54.86
2018-10-06T10:08:19.443Z,55.24
2018-10-06T10:10:50.064Z,54.55
2018-10-06T10:13:20.268Z,53.71
2018-10-06T10:15:49.954Z,54.61
2018-10-06T10:18:19.660Z,53.56
2018-10-06T10:20:49.636Z,54.34
2018-10-06T10:23:19.411Z,53.36
2018-10-06T10:25:49.565Z,53.17
2018-10-06T10:28:19.213Z,52.46
2018-10-06T10:30:48.868Z,52.82
2018-10-06T10:33:18.526Z,53.60
2018-10-06T10:35:48.183Z,53.34
2018-10-06T10:38:17.846Z,52.55
2018-10-06T10:40:47.534Z,52.11
2018-10-06T10:43:17.251Z,52.93
2018-10-06T10:45:46.932Z,52.39
2018-10-06T10:48:16.677Z,53.32
2018-10-06T10:50:46.421Z,52.90
2018-10-06T10:53:16.004Z,52.93
2018-10-06T10:55:45.709Z,52.45
2018-10-06T10:58:15.365Z,52.81
2018-10-06T11:00:45.052Z,53.75
2018-10-06T11:03:14.687Z,52.44
2018-10-06T11:05:44.376Z,52.33
2018-10-06T11:08:14.022Z,52.33
2018-10-06T11:10:43.644Z,52.63
2018-10-06T11:13:13.327Z,51.63
2018-10-06T11:15:42.976Z,51.78
2018-10-06T11:18:12.612Z,51.75
2018-10-06T11:20:42.312Z,51.16
2018-10-06T11:23:11.944Z,50.53
2018-10-06T11:25:41.588Z,51.43
2018-10-06T11:28:11.224Z,50.15
2018-10-06T11:30:40.872Z,49.52
2018-10-06T11:33:10.520Z,51.00
2018-10-06T11:35:40.180Z,49.94
2018-10-06T11:38:09.881Z,49.64
2018-10-06T11:40:39.708Z,51.82
2018-10-06T11:43:09.344Z,49.84
2018-10-06T11:45:39.002Z,50.66
2018-10-06T11:48:08.627Z,49.17
2018-10-06T11:50:38.348Z,49.66
2018-10-06T11:53:07.984Z,48.98
2018-10-06T11:55:37.604Z,49.45
2018-10-06T11:58:07.268Z,48.99
2018-10-06T12:00:37.060Z,49.28
2018-10-06T12:03:06.723Z,49.56
2018-10-06T12:05:36.461Z,48.04
2018-10-06T12:08:06.176Z,48.87
2018-10-06T12:10:35.811Z,48.10
2018-10-06T12:13:05.512Z,49.05
2018-10-06T12:15:35.152Z,49.09
2018-10-06T12:18:04.814Z,47.17
2018-10-06T12:20:34.564Z,47.71
2018-10-06T12:23:04.194Z,46.80
2018-10-06T12:25:33.806Z,47.26
2018-10-06T12:28:03.514Z,46.62
2018-10-06T12:30:33.137Z,47.83
2018-10-06T12:33:02.765Z,46.68
2018-10-06T12:35:32.527Z,46.44
2018-10-06T12:38:02.942Z,46.95
2018-10-06T12:40:32.619Z,47.31
2018-10-06T12:43:02.243Z,47.54
2018-10-06T12:45:31.886Z,47.99
2018-10-06T12:48:01.544Z,45.37
2018-10-06T12:50:31.209Z,48.68
2018-10-06T12:53:00.853Z,45.23
2018-10-06T12:55:30.573Z,45.67
2018-10-06T12:58:00.193Z,46.78
2018-10-06T13:00:29.908Z,46.24
2018-10-06T13:02:59.588Z,45.80
2018-10-06T13:05:29.238Z,46.60
2018-10-06T13:07:58.889Z,46.62
2018-10-06T13:10:28.540Z,46.29
2018-10-06T13:12:58.173Z,45.21
2018-10-06T13:15:27.820Z,45.96
2018-10-06T13:17:57.492Z,45.80
2018-10-06T13:20:27.126Z,45.84
2018-10-06T13:22:56.783Z,45.71
2018-10-06T13:25:26.568Z,45.68
2018-10-06T13:27:56.209Z,46.14
2018-10-06T13:30:25.860Z,45.82
2018-10-06T13:32:55.520Z,45.29
2018-10-06T13:35:25.156Z,46.09
2018-10-06T13:37:54.812Z,45.16
2018-10-06T13:40:24.451Z,44.28
2018-10-06T13:42:54.135Z,45.68
2018-10-06T13:45:23.760Z,44.72
2018-10-06T13:47:53.445Z,44.87
2018-10-06T13:50:23.089Z,44.82
2018-10-06T13:52:52.732Z,42.78
2018-10-06T13:55:22.373Z,43.82
2018-10-06T13:57:52.200Z,43.84
2018-10-06T14:00:22.142Z,43.81
2018-10-06T14:02:51.904Z,43.49
2018-10-06T14:05:21.535Z,42.83
2018-10-06T14:07:51.441Z,42.05
2018-10-06T14:10:21.076Z,43.06
2018-10-06T14:12:50.731Z,43.14
2018-10-06T14:15:20.356Z,43.30
2018-10-06T14:17:50.020Z,42.55
2018-10-06T14:20:19.651Z,42.69
2018-10-06T14:22:49.296Z,42.59
2018-10-06T14:25:18.913Z,42.66
2018-10-06T14:27:48.552Z,42.90
2018-10-06T14:30:18.180Z,43.06
2018-10-06T14:32:47.937Z,42.64
2018-10-06T14:35:17.592Z,44.42
2018-10-06T14:37:47.248Z,43.31
2018-10-06T14:40:16.893Z,43.80
2018-10-06T14:42:46.567Z,43.92
2018-10-06T14:45:16.212Z,43.90
2018-10-06T14:47:45.826Z,43.35
2018-10-06T14:50:15.631Z,43.31
2018-10-06T14:52:45.216Z,44.13
2018-10-06T14:55:14.857Z,44.73
2018-10-06T14:57:44.529Z,43.87
2018-10-06T15:00:14.244Z,43.94
2018-10-06T15:02:43.867Z,45.08
2018-10-06T15:05:13.537Z,44.37
2018-10-06T15:07:43.171Z,44.95
2018-10-06T15:10:12.842Z,45.71
2018-10-06T15:12:42.528Z,45.56
2018-10-06T15:15:12.175Z,46.74
2018-10-06T15:17:41.828Z,45.86
2018-10-06T15:20:11.540Z,46.92
2018-10-06T15:22:41.176Z,45.65
2018-10-06T15:25:10.864Z,46.65
2018-10-06T15:27:40.531Z,47.08
2018-10-06T15:30:10.177Z,47.10
2018-10-06T15:32:39.859Z,46.37
2018-10-06T15:35:09.543Z,46.70
2018-10-06T15:37:39.191Z,47.72
2018-10-06T15:40:08.884Z,46.83
2018-10-06T15:42:38.605Z,48.37
2018-10-06T15:45:08.664Z,48.16
2018-10-06T15:47:38.315Z,48.41
2018-10-06T15:50:08.016Z,48.46
2018-10-06T15:52:37.676Z,48.57
2018-10-06T15:55:07.402Z,48.77
2018-10-06T15:57:37.032Z,49.31
2018-10-06T16:00:07.211Z,50.31
2018-10-06T16:02:37.082Z,49.88
2018-10-06T16:05:06.744Z,50.16
2018-10-06T16:07:36.376Z,49.67
2018-10-06T16:10:06.817Z,49.71
2018-10-06T16:12:36.438Z,50.85
2018-10-06T16:15:06.404Z,50.42
2018-10-06T16:17:36.036Z,50.69
2018-10-06T16:20:05.748Z,51.63
2018-10-06T16:22:36.344Z,51.02
2018-10-06T16:25:06.046Z,51.44
2018-10-06T16:27:35.757Z,51.12
2018-10-06T16:30:06.325Z,52.21
2018-10-06T16:32:35.976Z,51.57
2018-10-06T16:35:05.656Z,51.51
2018-10-06T16:37:35.332Z,51.78
2018-10-06T16:40:05.020Z,52.15
2018-10-06T16:42:34.632Z,51.60
2018-10-06T16:45:04.351Z,51.85
2018-10-06T16:47:33.997Z,52.44
2018-10-06T16:50:03.649Z,52.39
2018-10-06T16:52:33.331Z,52.55
2018-10-06T16:55:02.970Z,52.86
2018-10-06T16:57:32.593Z,53.08
2018-10-06T17:00:02.342Z,53.60
2018-10-06T17:02:31.936Z,53.70
2018-10-06T17:05:01.580Z,54.32
2018-10-06T17:07:31.250Z,53.88
2018-10-06T17:10:00.884Z,54.60
2018-10-06T17:12:30.565Z,54.45
2018-10-06T17:15:00.236Z,54.65
2018-10-06T17:17:29.892Z,54.17
2018-10-06T17:19:59.591Z,54.77
2018-10-06T17:22:29.283Z,55.02
2018-10-06T17:24:58.982Z,55.40
2018-10-06T17:27:28.614Z,55.12
2018-10-06T17:29:58.307Z,55.18
2018-10-06T17:32:27.952Z,55.32
2018-10-06T17:34:57.587Z,56.13
2018-10-06T17:37:27.312Z,55.99
2018-10-06T17:39:57.000Z,55.74
2018-10-06T17:42:26.649Z,56.36
2018-10-06T17:44:56.339Z,56.66
2018-10-06T17:47:26.000Z,56.81
2018-10-06T17:49:55.760Z,57.08
2018-10-06T17:52:25.412Z,57.40
2018-10-06T17:54:55.057Z,57.23
2018-10-06T17:57:24.751Z,58.22
2018-10-06T17:59:54.435Z,57.65
2018-10-06T18:02:24.337Z,58.07
2018-10-06T18:04:54.159Z,58.12
2018-10-06T18:07:23.817Z,57.49
2018-10-06T18:09:53.582Z,58.23
2018-10-06T18:12:23.265Z,57.96
2018-10-06T18:14:52.884Z,57.86
2018-10-06T18:17:22.517Z,57.71
2018-10-06T18:19:52.220Z,57.98
2018-10-06T18:22:21.828Z,58.16
2018-10-06T18:24:51.452Z,58.34
2018-10-06T18:27:21.201Z,58.51
2018-10-06T18:29:50.799Z,58.51
2018-10-06T18:32:20.436Z,58.50
2018-10-06T18:34:50.129Z,58.64
2018-10-06T18:37:19.815Z,58.63
2018-10-06T18:39:49.435Z,59.01
2018-10-06T18:42:19.104Z,59.27
2018-10-06T18:44:48.732Z,59.77
2018-10-06T18:47:18.408Z,59.32
2018-10-06T18:49:48.072Z,59.79
2018-10-06T18:52:17.733Z,59.52
2018-10-06T18:54:47.432Z,59.62
2018-10-06T18:57:17.433Z,59.90
2018-10-06T18:59:47.076Z,59.68
2018-10-06T19:02:17.050Z,59.91
2018-10-06T19:04:47.039Z,59.94
2018-10-06T19:07:17.103Z,60.92
2018-10-06T19:09:47.229Z,60.01
2018-10-06T19:12:17.386Z,60.69
2018-10-06T19:14:47.486Z,60.91
2018-10-06T19:17:17.521Z,60.46
2018-10-06T19:19:47.552Z,60.11
2018-10-06T19:22:17.692Z,59.90
2018-10-06T19:24:47.718Z,59.50
2018-10-06T19:27:17.740Z,60.07
2018-10-06T19:29:47.526Z,60.37
2018-10-06T19:32:17.607Z,60.77
2018-10-06T19:34:47.536Z,60.99
2018-10-06T19:37:17.261Z,60.59
2018-10-06T19:39:46.950Z,61.53
2018-10-06T19:42:16.563Z,61.00
2018-10-06T19:44:46.238Z,61.54
2018-10-06T19:47:15.885Z,61.46
2018-10-06T19:49:45.541Z,61.75
2018-10-06T19:52:15.240Z,61.53
2018-10-06T19:54:44.892Z,62.05
2018-10-06T19:57:14.513Z,61.84
2018-10-06T19:59:44.184Z,62.28
2018-10-06T20:02:13.846Z,62.44
2018-10-06T20:04:43.471Z,61.93
2018-10-06T20:07:13.146Z,62.48
2018-10-06T20:09:42.783Z,62.52
2018-10-06T20:12:12.479Z,62.32
2018-10-06T20:14:42.162Z,62.38
2018-10-06T20:17:11.802Z,62.95
2018-10-06T20:19:41.432Z,63.13
2018-10-06T20:22:12.209Z,63.26
2018-10-06T20:24:41.848Z,63.46
2018-10-06T20:27:11.503Z,63.28
2018-10-06T20:29:41.172Z,63.65
2018-10-06T20:32:10.812Z,63.37
2018-10-06T20:34:40.448Z,63.95
2018-10-06T20:37:10.123Z,63.94
2018-10-06T20:39:39.767Z,62.98
2018-10-06T20:42:09.425Z,63.53
2018-10-06T20:44:39.115Z,63.95
2018-10-06T20:47:09.437Z,63.04
2018-10-06T20:49:39.096Z,63.64
2018-10-06T20:52:08.724Z,64.03
2018-10-06T20:54:38.349Z,64.59
2018-10-06T20:57:08.100Z,64.25
2018-10-06T20:59:37.738Z,64.52
2018-10-06T21:02:07.562Z,63.92
2018-10-06T21:04:37.175Z,64.68
2018-10-06T21:07:06.832Z,64.62
2018-10-06T21:09:36.440Z,63.88
2018-10-06T21:12:06.148Z,64.82
2018-10-06T21:14:35.800Z,64.35
2018-10-06T21:17:05.484Z,64.32
2018-10-06T21:19:35.160Z,64.32
2018-10-06T21:22:04.820Z,64.58
2018-10-06T21:24:34.468Z,64.43
2018-10-06T21:27:04.151Z,64.41
2018-10-06T21:29:34.042Z,65.05
2018-10-06T21:32:03.617Z,64.34
2018-10-06T21:34:33.300Z,64.38
2018-10-06T21:37:02.957Z,64.43
2018-10-06T21:39:32.698Z,65.57
2018-10-06T21:42:02.381Z,64.88
2018-10-06T21:44:32.016Z,65.06
2018-10-06T21:47:01.660Z,64.91
2018-10-06T21:49:31.499Z,65.72
2018-10-06T21:52:01.144Z,65.34
2018-10-06T21:54:30.785Z,65.72
2018-10-06T21:57:00.465Z,65.95
2018-10-06T21:59:30.111Z,65.68
2018-10-06T22:01:59.771Z,65.56
2018-10-06T22:04:29.460Z,65.21
2018-10-06T22:06:59.108Z,65.47
2018-10-06T22:09:28.748Z,65.70
2018-10-06T22:11:58.417Z,65.36
2018-10-06T22:14:28.076Z,65.46
2018-10-06T22:16:57.711Z,65.63
2018-10-06T22:19:27.449Z,66.25
2018-10-06T22:21:57.084Z,65.42
2018-10-06T22:24:26.720Z,66.10
2018-10-06T22:26:56.396Z,65.21
2018-10-06T22:29:26.137Z,66.41
2018-10-06T22:31:55.683Z,65.85
2018-10-06T22:34:25.368Z,65.45
2018-10-06T22:36:55.008Z,65.43
2018-10-06T22:39:24.677Z,65.86
2018-10-06T22:41:54.363Z,65.57
2018-10-06T22:44:24.032Z,66.21
2018-10-06T22:46:53.767Z,66.33
2018-10-06T22:49:23.444Z,66.45
2018-10-06T22:51:53.175Z,65.79
2018-10-06T22:54:22.820Z,66.13
2018-10-06T22:56:52.523Z,66.39
2018-10-06T22:59:22.177Z,66.22
2018-10-06T23:01:51.837Z,66.44
2018-10-06T23:04:21.521Z,66.98
2018-10-06T23:06:51.184Z,67.07
2018-10-06T23:09:20.812Z,66.51
2018-10-06T23:11:50.492Z,67.10
2018-10-06T23:14:20.129Z,66.82
2018-10-06T23:16:49.773Z,67.62
2018-10-06T23:19:19.440Z,68.29
2018-10-06T23:21:49.067Z,67.37
2018-10-06T23:24:18.716Z,67.57
2018-10-06T23:26:49.032Z,68.65
2018-10-06T23:29:18.904Z,69.05
2018-10-06T23:31:48.525Z,69.03
2018-10-06T23:34:18.179Z,68.88
2018-10-06T23:36:47.807Z,68.92
2018-10-06T23:39:17.448Z,69.13
2018-10-06T23:41:47.108Z,68.75
2018-10-06T23:44:16.772Z,69.05
2018-10-06T23:46:46.411Z,69.46
2018-10-06T23:49:16.087Z,69.48
2018-10-06T23:51:45.712Z,69.62
2018-10-06T23:54:15.380Z,69.16
2018-10-06T23:56:45.004Z,70.54
2018-10-06T23:59:14.662Z,70.16
